Time,TemperatureF,DewpointF,PressureIn,WindDirection,WindDirectionDegrees,WindSpeedMPH,WindSpeedGustMPH,Humidity,HourlyPrecipIn,Conditions,Clouds,dailyrainin,SolarRadiationWatts/m^2,SoftwareType,DateUTC
2014-01-24 00:02:00,3.0,-3.0,-100.00,North,-999,0.0,4.0,76,0.00,,,0.00,0.000000,,2014-01-24 06:02:00,
2014-01-24 00:42:00,2.0,-3.0,-100.00,North,1,1.0,3.0,80,0.00,,,0.00,0.000000,,2014-01-24 06:42:00,
2014-01-24 00:52:00,2.0,-3.0,-100.00,North,1,1.0,3.0,80,0.00,,,0.00,0.000000,,2014-01-24 06:52:00,
2014-01-24 01:02:00,2.0,-3.0,-100.00,North,1,1.0,3.0,80,0.00,,,0.00,0.000000,,2014-01-24 07:02:00,
2014-01-24 01:42:00,1.0,-4.0,-100.00,North,-999,0.0,2.0,80,0.00,,,0.00,0.000000,,2014-01-24 07:42:00,
2014-01-24 01:52:00,1.0,-4.0,-100.00,North,-999,0.0,2.0,80,0.00,,,0.00,0.000000,,2014-01-24 07:52:00,
2014-01-24 02:01:00,1.0,-4.0,-100.00,North,-999,0.0,2.0,80,0.00,,,0.00,0.000000,,2014-01-24 08:01:00,
2014-01-24 02:42:00,1.0,-4.0,-100.00,North,-999,0.0,0.0,80,0.00,,,0.00,0.000000,,2014-01-24 08:42:00,
2014-01-24 02:52:00,1.0,-4.0,-100.00,North,-999,0.0,0.0,80,0.00,,,0.00,0.000000,,2014-01-24 08:52:00,
2014-01-24 03:02:00,1.0,-4.0,-100.00,North,-999,0.0,0.0,80,0.00,,,0.00,0.000000,,2014-01-24 09:02:00,
2014-01-24 03:43:00,0.0,-5.0,-100.00,North,-999,0.0,0.0,79,0.00,,,0.00,0.000000,,2014-01-24 09:43:00,
2014-01-24 03:53:00,0.0,-5.0,-100.00,North,-999,0.0,0.0,79,0.00,,,0.00,0.000000,,2014-01-24 09:53:00,
2014-01-24 04:02:00,0.0,-5.0,-100.00,North,-999,0.0,0.0,79,0.00,,,0.00,0.000000,,2014-01-24 10:02:00,
2014-01-24 04:42:00,-1.0,-6.0,-100.00,North,-999,0.0,0.0,79,0.00,,,0.00,0.000000,,2014-01-24 10:42:00,
2014-01-24 04:52:00,-1.0,-6.0,-100.00,North,-999,0.0,0.0,79,0.00,,,0.00,0.000000,,2014-01-24 10:52:00,
2014-01-24 05:03:00,-1.0,-6.0,-100.00,North,-999,0.0,0.0,79,0.00,,,0.00,0.000000,,2014-01-24 11:03:00,
2014-01-24 05:42:00,0.0,-4.0,-100.00,North,-999,0.0,0.0,81,0.00,,,0.00,0.000000,,2014-01-24 11:42:00,
2014-01-24 05:52:00,0.0,-4.0,-100.00,North,-999,0.0,0.0,81,0.00,,,0.00,0.000000,,2014-01-24 11:52:00,
2014-01-24 06:02:00,0.0,-4.0,-100.00,North,-999,0.0,0.0,81,0.00,,,0.00,0.000000,,2014-01-24 12:02:00,
2014-01-24 06:42:00,0.0,-5.0,-100.00,SSE,165,1.0,3.0,80,0.00,,,0.00,0.000000,,2014-01-24 12:42:00,
2014-01-24 06:52:00,0.0,-5.0,-100.00,SSE,165,1.0,3.0,80,0.00,,,0.00,0.000000,,2014-01-24 12:52:00,
2014-01-24 07:01:00,0.0,-5.0,-100.00,SSE,165,1.0,3.0,80,0.00,,,0.00,0.000000,,2014-01-24 13:01:00,
2014-01-24 07:42:00,1.0,-4.0,-100.00,SSE,158,2.0,4.0,80,0.00,,,0.00,1.000000,,2014-01-24 13:42:00,
2014-01-24 07:52:00,1.0,-4.0,-100.00,SSE,158,2.0,4.0,80,0.00,,,0.00,1.000000,,2014-01-24 13:52:00,
2014-01-24 08:02:00,1.0,-4.0,-100.00,SSE,158,2.0,4.0,80,0.00,,,0.00,1.000000,,2014-01-24 14:02:00,
2014-01-24 08:42:00,6.0,0.0,-100.00,South,190,4.0,7.0,76,0.00,,,0.00,22.000000,,2014-01-24 14:42:00,
2014-01-24 08:52:00,6.0,0.0,-100.00,South,190,4.0,7.0,76,0.00,,,0.00,22.000000,,2014-01-24 14:52:00,
2014-01-24 09:02:00,6.0,0.0,-100.00,South,190,4.0,7.0,76,0.00,,,0.00,22.000000,,2014-01-24 15:02:00,
2014-01-24 09:44:00,14.0,5.0,-100.00,SSW,192,5.0,9.0,66,0.00,,,0.00,191.000000,,2014-01-24 15:44:00,
2014-01-24 09:53:00,14.0,5.0,-100.00,SSW,192,5.0,9.0,66,0.00,,,0.00,191.000000,,2014-01-24 15:53:00,
2014-01-24 10:04:00,14.0,5.0,-100.00,SSW,192,5.0,9.0,66,0.00,,,0.00,191.000000,,2014-01-24 16:04:00,
2014-01-24 10:42:00,17.0,3.0,-100.00,SSW,203,7.0,14.0,53,0.00,,,0.00,429.000000,,2014-01-24 16:42:00,
2014-01-24 10:53:00,17.0,3.0,-100.00,SSW,203,7.0,14.0,53,0.00,,,0.00,429.000000,,2014-01-24 16:53:00,
2014-01-24 11:02:00,17.0,3.0,-100.00,SSW,203,7.0,14.0,53,0.00,,,0.00,429.000000,,2014-01-24 17:02:00,
2014-01-24 11:42:00,21.0,1.0,-100.00,SSW,206,9.0,20.0,41,0.00,,,0.00,565.000000,,2014-01-24 17:42:00,
2014-01-24 11:52:00,21.0,1.0,-100.00,SSW,206,9.0,20.0,41,0.00,,,0.00,565.000000,,2014-01-24 17:52:00,
2014-01-24 12:02:00,21.0,1.0,-100.00,SSW,206,9.0,20.0,41,0.00,,,0.00,565.000000,,2014-01-24 18:02:00,
2014-01-24 12:43:00,24.0,1.0,-100.00,SW,218,8.0,21.0,36,0.00,,,0.00,644.000000,,2014-01-24 18:43:00,
2014-01-24 12:52:00,24.0,1.0,-100.00,SW,218,8.0,21.0,36,0.00,,,0.00,644.000000,,2014-01-24 18:52:00,
2014-01-24 13:02:00,24.0,1.0,-100.00,SW,218,8.0,21.0,36,0.00,,,0.00,644.000000,,2014-01-24 19:02:00,
2014-01-24 13:42:00,26.0,2.0,-100.00,SSW,206,8.0,21.0,34,0.00,,,0.00,657.000000,,2014-01-24 19:42:00,
2014-01-24 13:52:00,26.0,2.0,-100.00,SSW,206,8.0,21.0,34,0.00,,,0.00,657.000000,,2014-01-24 19:52:00,
2014-01-24 14:01:00,26.0,2.0,-100.00,SSW,206,8.0,21.0,34,0.00,,,0.00,657.000000,,2014-01-24 20:01:00,
2014-01-24 14:42:00,27.0,0.0,-100.00,SSW,205,10.0,21.0,30,0.00,,,0.00,611.000000,,2014-01-24 20:42:00,
2014-01-24 14:52:00,27.0,0.0,-100.00,SSW,205,10.0,21.0,30,0.00,,,0.00,611.000000,,2014-01-24 20:52:00,
2014-01-24 15:03:00,27.0,0.0,-100.00,SSW,205,10.0,21.0,30,0.00,,,0.00,611.000000,,2014-01-24 21:03:00,
2014-01-24 15:43:00,27.0,0.0,-100.00,SSW,200,9.0,22.0,30,0.00,,,0.00,440.000000,,2014-01-24 21:43:00,
2014-01-24 15:53:00,27.0,0.0,-100.00,SSW,200,9.0,22.0,30,0.00,,,0.00,440.000000,,2014-01-24 21:53:00,
2014-01-24 16:03:00,27.0,0.0,-100.00,SSW,200,9.0,22.0,30,0.00,,,0.00,440.000000,,2014-01-24 22:03:00,
2014-01-24 16:43:00,27.0,0.0,-100.00,SSW,199,9.0,21.0,30,0.00,,,0.00,299.000000,,2014-01-24 22:43:00,
2014-01-24 16:52:00,27.0,0.0,-100.00,SSW,199,9.0,21.0,30,0.00,,,0.00,299.000000,,2014-01-24 22:52:00,
2014-01-24 17:02:00,27.0,0.0,-100.00,SSW,199,9.0,21.0,30,0.00,,,0.00,299.000000,,2014-01-24 23:02:00,
2014-01-24 17:42:00,26.0,-2.0,-100.00,SSW,207,7.0,22.0,29,0.00,,,0.00,97.000000,,2014-01-24 23:42:00,
2014-01-24 17:53:00,26.0,-2.0,-100.00,SSW,207,7.0,22.0,29,0.00,,,0.00,97.000000,,2014-01-24 23:53:00,
2014-01-24 18:02:00,26.0,-2.0,-100.00,SSW,207,7.0,22.0,29,0.00,,,0.00,97.000000,,2014-01-25 00:02:00,
2014-01-24 18:42:00,24.0,-2.0,-100.00,SSW,199,7.0,20.0,32,0.00,,,0.00,1.000000,,2014-01-25 00:42:00,
2014-01-24 18:52:00,24.0,-2.0,-100.00,SSW,199,7.0,20.0,32,0.00,,,0.00,1.000000,,2014-01-25 00:52:00,
2014-01-24 19:02:00,24.0,-2.0,-100.00,SSW,199,7.0,20.0,32,0.00,,,0.00,1.000000,,2014-01-25 01:02:00,
2014-01-24 19:42:00,23.0,-1.0,-100.00,SSW,198,8.0,18.0,35,0.00,,,0.00,0.000000,,2014-01-25 01:42:00,
2014-01-24 19:52:00,23.0,-1.0,-100.00,SSW,198,8.0,18.0,35,0.00,,,0.00,0.000000,,2014-01-25 01:52:00,
2014-01-24 20:02:00,23.0,-1.0,-100.00,SSW,198,8.0,18.0,35,0.00,,,0.00,0.000000,,2014-01-25 02:02:00,
2014-01-24 20:42:00,24.0,0.0,-100.00,SSW,204,7.0,15.0,35,0.00,,,0.00,0.000000,,2014-01-25 02:42:00,
2014-01-24 20:52:00,24.0,0.0,-100.00,SSW,204,7.0,15.0,35,0.00,,,0.00,0.000000,,2014-01-25 02:52:00,
2014-01-24 21:02:00,24.0,0.0,-100.00,SSW,204,7.0,15.0,35,0.00,,,0.00,0.000000,,2014-01-25 03:02:00,
2014-01-24 21:43:00,25.0,1.0,-100.00,SW,215,8.0,22.0,35,0.00,,,0.00,0.000000,,2014-01-25 03:43:00,
2014-01-24 21:53:00,25.0,1.0,-100.00,SW,215,8.0,22.0,35,0.00,,,0.00,0.000000,,2014-01-25 03:53:00,
2014-01-24 22:03:00,25.0,1.0,-100.00,SW,215,8.0,22.0,35,0.00,,,0.00,0.000000,,2014-01-25 04:03:00,
2014-01-24 22:43:00,27.0,4.0,-100.00,SW,221,9.0,30.0,36,0.00,,,0.00,0.000000,,2014-01-25 04:43:00,
2014-01-24 22:53:00,27.0,4.0,-100.00,SW,221,9.0,30.0,36,0.00,,,0.00,0.000000,,2014-01-25 04:53:00,
2014-01-24 23:02:00,27.0,4.0,-100.00,SW,221,9.0,30.0,36,0.00,,,0.00,0.000000,,2014-01-25 05:02:00,
2014-01-24 23:43:00,27.0,4.0,-100.00,SW,221,7.0,23.0,36,0.00,,,0.00,0.000000,,2014-01-25 05:43:00,
2014-01-24 23:52:00,27.0,4.0,-100.00,SW,221,7.0,23.0,36,0.00,,,0.00,0.000000,,2014-01-25 05:52:00,